createdAt,value
2022-10-17T00:00:00.053Z,43
2022-10-17T00:00:32.080Z,40
2022-10-17T00:01:03.819Z,37
2022-10-17T00:01:35.921Z,17
2022-10-17T00:01:59.312Z,16
2022-10-17T00:02:21.688Z,17
2022-10-17T00:02:55.978Z,19
2022-10-17T00:03:27.735Z,29
2022-10-17T00:03:59.876Z,38
2022-10-17T00:04:31.812Z,57
2022-10-17T00:05:05.382Z,64
2022-10-17T00:05:35.887Z,60
2022-10-17T00:05:59.559Z,54
2022-10-17T00:06:21.766Z,43
2022-10-17T00:06:55.892Z,29
2022-10-17T00:07:28.046Z,22
2022-10-17T00:07:59.919Z,22
2022-10-17T00:08:31.801Z,22
2022-10-17T00:09:04.071Z,22
2022-10-17T00:09:35.820Z,25
2022-10-17T00:09:58.547Z,31
2022-10-17T00:10:20.868Z,33
2022-10-17T00:10:55.880Z,43
2022-10-17T00:11:28.132Z,43
2022-10-17T00:11:59.736Z,43
2022-10-17T00:12:32.057Z,43
2022-10-17T00:13:03.958Z,43
2022-10-17T00:13:35.861Z,43
2022-10-17T00:13:58.624Z,43
2022-10-17T00:14:21.021Z,42
2022-10-17T00:14:56.054Z,40
2022-10-17T00:15:27.985Z,40
2022-10-17T00:16:00.002Z,40
2022-10-17T00:16:31.856Z,40
2022-10-17T00:17:03.982Z,40
2022-10-17T00:17:35.867Z,40
2022-10-17T00:17:58.661Z,40
2022-10-17T00:18:21.207Z,39
2022-10-17T00:18:55.950Z,29
2022-10-17T00:19:27.973Z,29
2022-10-17T00:19:59.888Z,29
2022-10-17T00:20:31.787Z,29
2022-10-17T00:21:03.949Z,29
2022-10-17T00:21:35.778Z,29
2022-10-17T00:21:58.778Z,29
2022-10-17T00:22:21.024Z,30
2022-10-17T00:22:55.947Z,30
2022-10-17T00:23:28.014Z,35
2022-10-17T00:23:59.835Z,52
2022-10-17T00:24:31.950Z,51
2022-10-17T00:25:03.737Z,52
2022-10-17T00:25:35.844Z,55
2022-10-17T00:25:58.540Z,62
2022-10-17T00:26:20.899Z,43
2022-10-17T00:26:55.836Z,47
2022-10-17T00:27:29.675Z,61
2022-10-17T00:27:59.771Z,67
2022-10-17T00:28:31.805Z,62
2022-10-17T00:29:04.246Z,70
2022-10-17T00:29:35.825Z,64
2022-10-17T00:29:58.603Z,66
2022-10-17T00:30:21.024Z,64
2022-10-17T00:30:57.401Z,68
2022-10-17T00:31:27.819Z,64
2022-10-17T00:31:59.847Z,58
2022-10-17T00:32:32.061Z,49
2022-10-17T00:33:03.723Z,51
2022-10-17T00:33:35.810Z,55
2022-10-17T00:33:58.640Z,57
2022-10-17T00:34:21.141Z,59
2022-10-17T00:34:56.047Z,49
2022-10-17T00:35:27.729Z,66
2022-10-17T00:35:59.920Z,66
2022-10-17T00:36:31.777Z,65
2022-10-17T00:37:03.941Z,58
2022-10-17T00:37:35.760Z,50
2022-10-17T00:37:58.495Z,47
2022-10-17T00:38:22.363Z,43
2022-10-17T00:38:56.077Z,61
2022-10-17T00:39:27.835Z,52
2022-10-17T00:39:59.906Z,56
2022-10-17T00:40:31.837Z,49
2022-10-17T00:41:03.898Z,57
2022-10-17T00:41:35.751Z,53
2022-10-17T00:41:58.710Z,51
2022-10-17T00:42:21.160Z,57
2022-10-17T00:42:55.978Z,53
2022-10-17T00:43:27.824Z,54
2022-10-17T00:43:59.862Z,62
2022-10-17T00:44:31.808Z,60
2022-10-17T00:45:03.966Z,54
2022-10-17T00:45:35.845Z,49
2022-10-17T00:45:58.934Z,54
2022-10-17T00:46:21.259Z,46
2022-10-17T00:46:55.891Z,47
2022-10-17T00:47:31.435Z,46
2022-10-17T00:47:59.696Z,42
2022-10-17T00:48:31.863Z,43
2022-10-17T00:49:03.832Z,48
2022-10-17T00:49:35.809Z,46
2022-10-17T00:49:59.166Z,45
2022-10-17T00:50:21.514Z,43
2022-10-17T00:50:55.941Z,42
2022-10-17T00:51:27.823Z,55
2022-10-17T00:52:00.258Z,52
2022-10-17T00:52:32.146Z,46
2022-10-17T00:53:03.789Z,45
2022-10-17T00:53:35.716Z,45
2022-10-17T00:53:58.909Z,45
2022-10-17T00:54:21.308Z,45
2022-10-17T00:54:56.059Z,45
2022-10-17T00:55:28.329Z,47
2022-10-17T00:56:01.314Z,47
2022-10-17T00:56:31.700Z,49
2022-10-17T00:57:03.840Z,47
2022-10-17T00:57:36.152Z,47
2022-10-17T00:57:58.965Z,53
2022-10-17T00:58:21.432Z,52
2022-10-17T00:58:55.905Z,64
2022-10-17T00:59:27.858Z,55
2022-10-17T00:59:59.753Z,56
2022-10-17T01:00:31.955Z,62
2022-10-17T01:01:03.803Z,50
2022-10-17T01:01:35.988Z,54
2022-10-17T01:01:58.703Z,61
2022-10-17T01:02:21.040Z,69
2022-10-17T01:02:55.920Z,74
2022-10-17T01:03:27.701Z,71
2022-10-17T01:03:59.706Z,60
2022-10-17T01:04:31.831Z,54
2022-10-17T01:05:05.203Z,65
2022-10-17T01:05:35.766Z,65
2022-10-17T01:05:58.496Z,62
2022-10-17T01:06:20.999Z,66
2022-10-17T01:06:55.919Z,60
2022-10-17T01:07:27.817Z,56
2022-10-17T01:07:59.818Z,56
2022-10-17T01:08:33.202Z,60
2022-10-17T01:09:03.716Z,62
2022-10-17T01:09:35.786Z,68
2022-10-17T01:09:59.565Z,69
2022-10-17T01:10:55.997Z,49
2022-10-17T01:11:27.682Z,56
2022-10-17T01:11:59.727Z,46
2022-10-17T01:12:31.826Z,47
2022-10-17T01:13:03.938Z,53
2022-10-17T01:13:35.692Z,51
2022-10-17T01:13:58.918Z,66
2022-10-17T01:14:21.001Z,62
2022-10-17T01:14:55.898Z,57
2022-10-17T01:15:27.877Z,66
2022-10-17T01:15:59.776Z,64
2022-10-17T01:16:31.820Z,62
2022-10-17T01:16:57.958Z,58
2022-10-17T01:17:32.871Z,57
2022-10-17T01:18:04.583Z,49
2022-10-17T01:18:40.107Z,58
2022-10-17T01:19:02.861Z,59
2022-10-17T01:20:00.700Z,66
2022-10-17T01:20:32.527Z,61
2022-10-17T01:21:03.864Z,63
2022-10-17T01:21:36.373Z,62
2022-10-17T01:21:59.182Z,54
2022-10-17T01:22:22.424Z,56
2022-10-17T01:22:56.416Z,58
2022-10-17T01:23:27.659Z,41
2022-10-17T01:23:59.890Z,62
2022-10-17T01:24:32.492Z,69
2022-10-17T01:25:04.395Z,68
2022-10-17T01:25:35.743Z,70
2022-10-17T01:25:58.370Z,76
2022-10-17T01:26:20.778Z,80
2022-10-17T01:26:55.910Z,82
2022-10-17T01:27:28.083Z,70
2022-10-17T01:27:59.788Z,77
2022-10-17T01:28:31.954Z,71
2022-10-17T01:29:04.467Z,71
2022-10-17T01:29:35.746Z,73
2022-10-17T01:29:58.333Z,67
2022-10-17T01:30:21.808Z,63
2022-10-17T01:30:56.971Z,64
2022-10-17T01:33:54.218Z,62
2022-10-17T01:34:23.792Z,55
2022-10-17T01:34:58.069Z,62
2022-10-17T01:35:27.778Z,65
2022-10-17T01:36:03.327Z,49
2022-10-17T01:36:31.912Z,58
2022-10-17T01:37:03.947Z,68
2022-10-17T01:37:37.236Z,55
2022-10-17T01:37:58.841Z,57
2022-10-17T01:38:21.508Z,55
2022-10-17T01:38:55.780Z,60
2022-10-17T01:39:30.327Z,62
2022-10-17T01:40:00.333Z,62
2022-10-17T01:40:32.587Z,66
2022-10-17T01:41:03.923Z,66
2022-10-17T01:41:36.055Z,69
2022-10-17T01:41:58.741Z,56
2022-10-17T01:42:21.429Z,64
2022-10-17T01:42:56.620Z,43
2022-10-17T01:43:28.276Z,55
2022-10-17T01:44:00.096Z,61
2022-10-17T01:44:31.763Z,61
2022-10-17T01:45:04.329Z,55
2022-10-17T01:45:35.719Z,53
2022-10-17T01:45:58.433Z,53
2022-10-17T01:46:24.738Z,42
2022-10-17T01:46:57.823Z,49
2022-10-17T01:47:29.516Z,47
2022-10-17T01:48:00.300Z,51
2022-10-17T01:48:32.513Z,59
2022-10-17T01:49:03.642Z,57
2022-10-17T01:49:36.529Z,53
2022-10-17T01:49:58.659Z,56
2022-10-17T01:50:21.287Z,58
2022-10-17T01:50:56.049Z,56
2022-10-17T01:51:27.764Z,59
2022-10-17T01:52:00.156Z,65
2022-10-17T01:52:31.658Z,67
2022-10-17T01:53:04.196Z,66
2022-10-17T01:53:35.780Z,52
2022-10-17T01:53:58.382Z,61
2022-10-17T01:54:22.096Z,66
2022-10-17T01:54:55.988Z,67
2022-10-17T01:55:29.548Z,66
2022-10-17T01:56:01.872Z,63
2022-10-17T01:56:33.566Z,63
2022-10-17T01:57:04.081Z,69
2022-10-17T01:57:36.061Z,61
2022-10-17T01:57:58.718Z,66
2022-10-17T01:58:21.241Z,67
2022-10-17T01:58:55.820Z,65
2022-10-17T01:59:27.765Z,67
2022-10-17T02:00:00.224Z,64
2022-10-17T02:00:32.552Z,72
2022-10-17T02:01:05.205Z,67
2022-10-17T02:01:38.033Z,71
2022-10-17T02:02:01.050Z,65
2022-10-17T02:02:24.302Z,71
2022-10-17T02:02:55.831Z,74
2022-10-17T02:03:27.929Z,70
2022-10-17T02:03:59.669Z,69
2022-10-17T02:04:32.742Z,70
2022-10-17T02:05:05.283Z,69
2022-10-17T02:05:36.163Z,70
2022-10-17T02:05:58.831Z,68
2022-10-17T02:06:21.292Z,60
2022-10-17T02:06:55.776Z,71
2022-10-17T02:07:28.174Z,69
2022-10-17T02:08:00.684Z,72
2022-10-17T02:08:31.768Z,74
2022-10-17T02:09:04.124Z,66
2022-10-17T02:09:35.863Z,63
2022-10-17T02:09:58.449Z,66
2022-10-17T02:10:20.919Z,71
2022-10-17T02:10:56.451Z,60
2022-10-17T02:11:28.027Z,64
2022-10-17T02:12:00.439Z,59
2022-10-17T02:12:32.332Z,64
2022-10-17T02:13:03.655Z,65
2022-10-17T02:13:36.456Z,73
2022-10-17T02:13:58.923Z,67
2022-10-17T02:14:21.830Z,66
2022-10-17T02:14:57.125Z,62
2022-10-17T02:15:27.932Z,65
2022-10-17T02:16:00.113Z,67
2022-10-17T02:16:32.087Z,68
2022-10-17T02:17:04.332Z,61
2022-10-17T02:17:35.612Z,63
2022-10-17T02:17:58.333Z,63
2022-10-17T02:18:21.686Z,60
2022-10-17T02:18:58.173Z,59
2022-10-17T02:19:28.315Z,64
2022-10-17T02:19:59.735Z,59
2022-10-17T02:20:33.486Z,66
2022-10-17T02:21:04.336Z,54
2022-10-17T02:21:36.050Z,56
2022-10-17T02:21:58.726Z,49
2022-10-17T02:22:21.244Z,63
2022-10-17T02:22:56.367Z,60
2022-10-17T02:23:27.775Z,53
2022-10-17T02:24:01.215Z,60
2022-10-17T02:24:32.254Z,19
2022-10-17T02:25:03.957Z,33
2022-10-17T02:25:36.441Z,32
2022-10-17T02:25:59.036Z,27
2022-10-17T02:26:21.678Z,27
2022-10-17T02:26:55.746Z,41
2022-10-17T02:27:27.868Z,42
2022-10-17T02:27:59.927Z,59
2022-10-17T02:28:31.941Z,54
2022-10-17T02:29:04.022Z,45
2022-10-17T02:29:36.521Z,47
2022-10-17T02:29:59.186Z,48
2022-10-17T02:30:21.583Z,52
2022-10-17T02:30:56.313Z,46
2022-10-17T02:31:27.731Z,60
2022-10-17T02:32:00.376Z,57
2022-10-17T02:32:31.718Z,67
2022-10-17T02:33:04.612Z,70
2022-10-17T02:33:36.235Z,70
2022-10-17T02:33:58.430Z,69
2022-10-17T02:34:21.337Z,55
2022-10-17T02:34:56.650Z,58
2022-10-17T02:35:33.555Z,65
2022-10-17T02:35:56.676Z,73
2022-10-17T02:36:31.864Z,67
2022-10-17T02:37:03.974Z,70
2022-10-17T02:37:35.790Z,67
2022-10-17T02:37:59.144Z,61
2022-10-17T02:38:21.280Z,59
2022-10-17T02:38:55.823Z,52
2022-10-17T02:39:31.193Z,47
2022-10-17T02:39:59.810Z,59
2022-10-17T02:40:31.897Z,65
2022-10-17T02:41:03.890Z,47
2022-10-17T02:41:35.673Z,52
2022-10-17T02:41:58.465Z,55
2022-10-17T02:42:20.779Z,61
2022-10-17T02:42:55.966Z,64
2022-10-17T02:43:27.703Z,67
2022-10-17T02:44:02.327Z,66
2022-10-17T02:44:31.658Z,67
2022-10-17T02:45:03.918Z,62
2022-10-17T02:45:36.085Z,53
2022-10-17T02:45:58.871Z,45
2022-10-17T02:46:21.356Z,56
2022-10-17T02:46:55.613Z,56
2022-10-17T02:47:27.622Z,51
2022-10-17T02:47:59.764Z,43
2022-10-17T02:48:31.891Z,41
2022-10-17T02:49:03.853Z,41
2022-10-17T02:49:35.638Z,41
2022-10-17T02:49:58.705Z,41
2022-10-17T02:50:20.945Z,41
2022-10-17T02:50:55.717Z,41
2022-10-17T02:51:27.676Z,41
2022-10-17T02:51:59.673Z,38
2022-10-17T02:52:32.313Z,44
2022-10-17T02:53:03.830Z,43
2022-10-17T02:53:35.735Z,44
2022-10-17T02:53:59.246Z,43
2022-10-17T02:54:21.793Z,45
2022-10-17T02:54:55.710Z,49
2022-10-17T02:55:27.824Z,51
2022-10-17T02:55:59.671Z,58
2022-10-17T02:56:31.647Z,57
2022-10-17T02:57:03.905Z,54
2022-10-17T02:57:35.588Z,41
2022-10-17T02:57:58.357Z,37
2022-10-17T02:58:20.806Z,31
2022-10-17T02:58:55.822Z,31
2022-10-17T02:59:27.704Z,31
2022-10-17T02:59:59.638Z,31
2022-10-17T03:00:31.657Z,30
2022-10-17T03:01:03.834Z,22
2022-10-17T03:01:35.722Z,21
2022-10-17T03:01:58.419Z,31
2022-10-17T03:02:20.786Z,64
2022-10-17T03:02:55.888Z,60
2022-10-17T03:03:27.727Z,69
2022-10-17T03:03:59.697Z,71
2022-10-17T03:04:31.573Z,66
2022-10-17T03:05:08.179Z,71
2022-10-17T03:05:35.744Z,65
2022-10-17T03:05:58.881Z,70
2022-10-17T03:06:21.195Z,70
2022-10-17T03:06:55.704Z,59
2022-10-17T03:07:27.682Z,45
2022-10-17T03:07:59.620Z,44
2022-10-17T03:08:31.870Z,44
2022-10-17T03:09:03.823Z,57
2022-10-17T03:09:35.847Z,55
2022-10-17T03:09:59.314Z,51
2022-10-17T03:10:21.659Z,59
2022-10-17T03:10:57.178Z,55
2022-10-17T03:11:27.683Z,46
2022-10-17T03:11:59.678Z,45
2022-10-17T03:12:31.960Z,44
2022-10-17T03:13:03.720Z,43
2022-10-17T03:13:39.972Z,44
2022-10-17T03:13:58.274Z,44
2022-10-17T03:14:20.630Z,46
2022-10-17T03:14:56.179Z,46
2022-10-17T03:15:27.792Z,56
2022-10-17T03:15:59.802Z,63
2022-10-17T03:16:31.600Z,51
2022-10-17T03:17:03.741Z,44
2022-10-17T03:17:35.719Z,34
2022-10-17T03:17:59.159Z,18
2022-10-17T03:18:21.085Z,7
2022-10-17T03:18:56.144Z,10
2022-10-17T03:19:27.772Z,15
2022-10-17T03:19:59.706Z,20
2022-10-17T03:20:31.854Z,41
2022-10-17T03:21:03.634Z,41
2022-10-17T03:21:32.751Z,40
2022-10-17T03:22:04.402Z,29
2022-10-17T03:22:39.757Z,338
2022-10-17T03:23:02.445Z,341
2022-10-17T03:23:24.743Z,8
2022-10-17T03:23:59.641Z,14
2022-10-17T03:24:31.982Z,24
2022-10-17T03:25:03.679Z,28
2022-10-17T03:25:33.054Z,10
2022-10-17T03:26:04.398Z,352
2022-10-17T03:26:39.760Z,8
2022-10-17T03:27:02.692Z,10
2022-10-17T03:27:24.968Z,14
2022-10-17T03:27:59.631Z,20
2022-10-17T03:28:31.670Z,27
2022-10-17T03:29:03.907Z,27
2022-10-17T03:29:37.183Z,26
2022-10-17T03:30:01.084Z,26
2022-10-17T03:30:23.201Z,26
2022-10-17T03:30:56.081Z,27
2022-10-17T03:31:27.564Z,27
2022-10-17T03:31:59.690Z,44
2022-10-17T03:32:31.599Z,43
2022-10-17T03:33:03.998Z,43
2022-10-17T03:33:41.085Z,43
2022-10-17T03:33:59.123Z,31
2022-10-17T03:34:21.489Z,12
2022-10-17T03:34:55.658Z,12
2022-10-17T03:35:27.713Z,14
2022-10-17T03:36:01.196Z,14
2022-10-17T03:36:31.762Z,23
2022-10-17T03:37:03.655Z,23
2022-10-17T03:37:35.651Z,30
2022-10-17T03:37:58.286Z,30
2022-10-17T03:38:20.755Z,22
2022-10-17T03:38:55.637Z,23
2022-10-17T03:39:28.230Z,33
2022-10-17T03:39:59.556Z,29
2022-10-17T03:40:32.570Z,30
2022-10-17T03:41:03.632Z,16
2022-10-17T03:41:35.751Z,21
2022-10-17T03:42:00.276Z,21
2022-10-17T03:42:22.547Z,30
2022-10-17T03:42:55.634Z,29
2022-10-17T03:43:27.668Z,30
2022-10-17T03:43:59.661Z,36
2022-10-17T03:44:31.807Z,30
2022-10-17T03:45:03.804Z,30
2022-10-17T03:45:35.821Z,25
2022-10-17T03:45:58.736Z,19
2022-10-17T03:46:21.069Z,19
2022-10-17T03:46:55.642Z,26
2022-10-17T03:47:27.818Z,33
2022-10-17T03:47:59.668Z,54
2022-10-17T03:48:31.615Z,57
2022-10-17T03:49:03.617Z,56
2022-10-17T03:49:35.599Z,54
2022-10-17T03:50:00.290Z,65
2022-10-17T03:50:22.432Z,47
2022-10-17T03:50:56.244Z,47
2022-10-17T03:51:27.588Z,46
2022-10-17T03:51:59.635Z,53
2022-10-17T03:52:31.561Z,56
2022-10-17T03:53:03.783Z,50
2022-10-17T03:53:35.529Z,42
2022-10-17T03:53:58.227Z,41
2022-10-17T03:54:20.633Z,41
2022-10-17T03:55:01.254Z,39
2022-10-17T03:55:27.668Z,41
2022-10-17T03:55:59.548Z,44
2022-10-17T03:56:31.696Z,65
2022-10-17T03:57:03.667Z,53
2022-10-17T03:57:32.993Z,49
2022-10-17T03:58:04.347Z,56
2022-10-17T03:58:39.763Z,49
2022-10-17T03:59:02.692Z,65
2022-10-17T03:59:24.965Z,38
2022-10-17T03:59:59.575Z,28
2022-10-17T04:00:31.710Z,68
2022-10-17T04:01:03.744Z,62
2022-10-17T04:01:33.102Z,65
2022-10-17T04:02:04.486Z,63
2022-10-17T04:02:39.637Z,78
2022-10-17T04:03:02.214Z,81
2022-10-17T04:03:24.496Z,79
2022-10-17T04:04:00.075Z,81
2022-10-17T04:04:31.538Z,83
2022-10-17T04:05:05.157Z,87
2022-10-17T04:05:32.871Z,86
2022-10-17T04:06:04.442Z,73
2022-10-17T04:06:40.155Z,66
2022-10-17T04:07:03.545Z,95
2022-10-17T04:08:02.405Z,41
2022-10-17T04:08:31.541Z,59
2022-10-17T04:09:03.774Z,58
2022-10-17T04:09:35.720Z,51
2022-10-17T04:09:58.479Z,66
2022-10-17T04:10:20.859Z,50
2022-10-17T04:10:56.090Z,51
2022-10-17T04:11:27.746Z,50
2022-10-17T04:11:59.807Z,44
2022-10-17T04:12:31.929Z,43
2022-10-17T04:13:03.538Z,26
2022-10-17T04:13:32.795Z,27
2022-10-17T04:14:04.448Z,15
2022-10-17T04:14:41.263Z,15
2022-10-17T04:15:04.846Z,17
2022-10-17T04:15:26.071Z,23
2022-10-17T04:15:59.665Z,21
2022-10-17T04:16:31.678Z,21
2022-10-17T04:17:03.572Z,57
2022-10-17T04:17:38.042Z,77
2022-10-17T04:17:58.461Z,60
2022-10-17T04:18:20.812Z,53
2022-10-17T04:18:55.669Z,54
2022-10-17T04:19:27.526Z,46
2022-10-17T04:20:00.153Z,51
2022-10-17T04:20:31.690Z,49
2022-10-17T04:21:03.765Z,63
2022-10-17T04:21:35.526Z,61
2022-10-17T04:21:58.540Z,64
2022-10-17T04:22:20.857Z,71
2022-10-17T04:22:57.151Z,72
2022-10-17T04:23:28.128Z,68
2022-10-17T04:23:59.605Z,64
2022-10-17T04:24:31.755Z,62
2022-10-17T04:25:03.667Z,54
2022-10-17T04:25:36.775Z,66
2022-10-17T04:25:58.355Z,59
2022-10-17T04:26:20.711Z,60
2022-10-17T04:26:55.697Z,65
2022-10-17T04:27:27.661Z,56
2022-10-17T04:27:59.590Z,55
2022-10-17T04:28:31.764Z,59
2022-10-17T04:29:03.495Z,41
2022-10-17T04:29:32.832Z,53
2022-10-17T04:30:04.526Z,41
2022-10-17T04:30:42.274Z,31
2022-10-17T04:31:02.235Z,45
2022-10-17T04:31:24.574Z,65
2022-10-17T04:31:59.589Z,60
2022-10-17T04:32:31.924Z,58
2022-10-17T04:33:03.579Z,39
2022-10-17T04:33:32.745Z,42
2022-10-17T04:34:04.439Z,55
2022-10-17T04:34:40.116Z,45
2022-10-17T04:35:02.492Z,65
2022-10-17T04:35:24.782Z,65
2022-10-17T04:35:59.965Z,45
2022-10-17T04:36:31.591Z,44
2022-10-17T04:37:03.670Z,44
2022-10-17T04:37:35.555Z,57
2022-10-17T04:37:58.507Z,56
2022-10-17T04:38:24.998Z,53
2022-10-17T04:38:55.593Z,52
2022-10-17T04:39:28.051Z,45
2022-10-17T04:39:59.624Z,57
2022-10-17T04:40:31.592Z,47
2022-10-17T04:41:03.605Z,43
2022-10-17T04:41:32.939Z,36
2022-10-17T04:42:04.579Z,51
2022-10-17T04:42:39.509Z,41
2022-10-17T04:43:02.641Z,41
2022-10-17T04:43:24.904Z,40
2022-10-17T04:43:59.728Z,29
2022-10-17T04:44:31.672Z,32
2022-10-17T04:45:07.257Z,38
2022-10-17T04:45:32.901Z,37
2022-10-17T04:46:04.496Z,37
2022-10-17T04:46:39.666Z,34
2022-10-17T04:47:03.692Z,35
2022-10-17T04:47:24.606Z,35
2022-10-17T04:47:59.539Z,359
2022-10-17T04:48:31.856Z,6
2022-10-17T04:49:03.542Z,7
2022-10-17T04:49:35.517Z,339
2022-10-17T04:49:58.357Z,349
2022-10-17T04:50:20.622Z,7
2022-10-17T04:50:55.779Z,7
2022-10-17T04:51:27.522Z,12
2022-10-17T04:51:59.726Z,23
2022-10-17T04:52:31.838Z,23
2022-10-17T04:53:03.753Z,30
2022-10-17T04:53:35.592Z,32
2022-10-17T04:53:58.493Z,38
2022-10-17T04:54:20.796Z,57
2022-10-17T04:54:55.624Z,55
2022-10-17T04:55:27.638Z,47
2022-10-17T04:55:59.703Z,42
2022-10-17T04:56:31.781Z,45
2022-10-17T04:57:03.619Z,34
2022-10-17T04:57:35.484Z,56
2022-10-17T04:57:58.729Z,54
2022-10-17T04:58:21.093Z,42
2022-10-17T04:58:55.509Z,42
2022-10-17T04:59:27.716Z,52
2022-10-17T04:59:59.582Z,53
2022-10-17T05:00:31.567Z,45
2022-10-17T05:01:03.700Z,47
2022-10-17T05:01:32.985Z,44
2022-10-17T05:02:04.538Z,58
2022-10-17T05:02:39.647Z,34
2022-10-17T05:03:02.322Z,40
2022-10-17T05:03:24.650Z,25
2022-10-17T05:03:59.792Z,44
2022-10-17T05:04:31.476Z,50
2022-10-17T05:05:03.578Z,58
2022-10-17T05:05:30.068Z,67
2022-10-17T05:06:04.942Z,66
2022-10-17T05:06:39.771Z,51
2022-10-17T05:07:02.389Z,49
2022-10-17T05:07:24.774Z,59
2022-10-17T05:07:59.850Z,50
2022-10-17T05:08:31.921Z,49
2022-10-17T05:09:03.770Z,49
2022-10-17T05:09:35.922Z,47
2022-10-17T05:09:58.683Z,46
2022-10-17T05:10:21.097Z,41
2022-10-17T05:10:56.595Z,32
2022-10-17T05:11:28.229Z,40
2022-10-17T05:11:59.582Z,47
2022-10-17T05:12:32.029Z,49
2022-10-17T05:13:03.615Z,45
2022-10-17T05:13:33.595Z,50
2022-10-17T05:14:04.668Z,47
2022-10-17T05:14:40.231Z,42
2022-10-17T05:15:05.470Z,42
2022-10-17T05:15:27.367Z,41
2022-10-17T05:15:59.770Z,41
2022-10-17T05:16:31.637Z,41
2022-10-17T05:17:03.960Z,42
2022-10-17T05:17:35.813Z,42
2022-10-17T05:17:58.568Z,42
2022-10-17T05:18:20.898Z,42
2022-10-17T05:18:57.852Z,36
2022-10-17T05:19:28.686Z,49
2022-10-17T05:19:59.624Z,31
2022-10-17T05:20:31.776Z,47
2022-10-17T05:21:03.563Z,42
2022-10-17T05:22:04.544Z,42
2022-10-17T05:22:42.058Z,44
2022-10-17T05:23:03.186Z,45
2022-10-17T05:23:26.213Z,44
2022-10-17T05:23:59.652Z,45
2022-10-17T05:24:32.297Z,31
2022-10-17T05:25:04.574Z,42
2022-10-17T05:25:35.731Z,49
2022-10-17T05:25:58.160Z,36
2022-10-17T05:26:20.593Z,39
2022-10-17T05:26:55.715Z,47
2022-10-17T05:27:30.887Z,37
2022-10-17T05:27:53.707Z,49
2022-10-17T05:28:32.015Z,59
2022-10-17T05:29:03.563Z,64
2022-10-17T05:29:32.986Z,73
2022-10-17T05:30:04.652Z,66
2022-10-17T05:30:39.695Z,70
2022-10-17T05:31:02.562Z,61
2022-10-17T05:31:24.961Z,73
2022-10-17T05:31:59.622Z,74
2022-10-17T05:32:31.911Z,66
2022-10-17T05:33:03.599Z,69
2022-10-17T05:33:35.717Z,75
2022-10-17T05:33:59.119Z,74
2022-10-17T05:34:21.468Z,75
2022-10-17T05:34:55.751Z,69
2022-10-17T05:35:27.885Z,77
2022-10-17T05:35:59.746Z,76
2022-10-17T05:36:31.627Z,77
2022-10-17T05:37:03.629Z,76
2022-10-17T05:37:35.818Z,80
2022-10-17T05:37:58.837Z,82
2022-10-17T05:38:21.087Z,78
2022-10-17T05:38:55.554Z,76
2022-10-17T05:39:27.627Z,84
2022-10-17T05:39:59.521Z,78
2022-10-17T05:40:31.525Z,76
2022-10-17T05:41:03.791Z,60
2022-10-17T05:41:35.639Z,62
2022-10-17T05:41:58.306Z,59
2022-10-17T05:42:20.872Z,52
2022-10-17T05:42:55.813Z,59
2022-10-17T05:43:27.819Z,60
2022-10-17T05:44:03.084Z,44
2022-10-17T05:44:31.557Z,40
2022-10-17T05:45:03.801Z,39
2022-10-17T05:45:35.612Z,36
2022-10-17T05:45:58.972Z,32
2022-10-17T05:46:21.512Z,26
2022-10-17T05:46:55.600Z,26
2022-10-17T05:47:28.230Z,349
2022-10-17T05:47:59.540Z,4
2022-10-17T05:48:31.609Z,7
2022-10-17T05:49:14.679Z,7
2022-10-17T05:49:43.997Z,15
2022-10-17T05:50:04.586Z,15
2022-10-17T05:50:39.751Z,15
2022-10-17T05:51:02.306Z,13
2022-10-17T05:51:24.839Z,8
2022-10-17T05:51:59.617Z,311
2022-10-17T05:52:32.267Z,316
2022-10-17T05:53:03.841Z,266
2022-10-17T05:53:35.662Z,270
2022-10-17T05:53:58.592Z,271
2022-10-17T05:54:20.829Z,286
2022-10-17T05:54:55.677Z,315
2022-10-17T05:55:27.711Z,321
2022-10-17T05:55:59.652Z,324
2022-10-17T05:56:31.933Z,310
2022-10-17T05:57:03.838Z,303
2022-10-17T05:57:35.720Z,262
2022-10-17T05:57:58.683Z,276
2022-10-17T05:58:22.430Z,293
2022-10-17T05:59:00.735Z,299
2022-10-17T05:59:27.719Z,316
2022-10-17T05:59:59.653Z,317
2022-10-17T06:00:31.830Z,312
2022-10-17T06:01:03.567Z,318
2022-10-17T06:01:32.981Z,327
2022-10-17T06:02:04.772Z,327
2022-10-17T06:02:39.672Z,337
2022-10-17T06:03:02.486Z,349
2022-10-17T06:03:25.218Z,6
2022-10-17T06:03:59.819Z,10
2022-10-17T06:04:31.653Z,10
2022-10-17T06:05:03.642Z,10
2022-10-17T06:05:35.763Z,10
2022-10-17T06:05:58.661Z,10
2022-10-17T06:06:21.233Z,12
2022-10-17T06:06:55.701Z,15
2022-10-17T06:07:28.030Z,15
2022-10-17T06:08:01.905Z,15
2022-10-17T06:08:31.644Z,15
2022-10-17T06:09:03.802Z,15
2022-10-17T06:09:36.100Z,12
2022-10-17T06:09:59.162Z,12
2022-10-17T06:10:21.594Z,14
2022-10-17T06:10:55.647Z,14
2022-10-17T06:11:27.699Z,22
2022-10-17T06:11:59.954Z,22
2022-10-17T06:12:31.893Z,22
2022-10-17T06:13:03.581Z,22
2022-10-17T06:13:32.875Z,22
2022-10-17T06:14:04.988Z,22
2022-10-17T06:14:39.625Z,25
2022-10-17T06:15:05.676Z,29
2022-10-17T06:15:25.754Z,32
2022-10-17T06:15:59.581Z,41
2022-10-17T06:16:31.916Z,49
2022-10-17T06:17:03.718Z,44
2022-10-17T06:17:32.994Z,44
2022-10-17T06:18:04.641Z,44
2022-10-17T06:18:39.891Z,43
2022-10-17T06:19:03.088Z,44
2022-10-17T06:19:25.188Z,44
2022-10-17T06:19:59.690Z,47
2022-10-17T06:20:31.906Z,44
2022-10-17T06:21:03.575Z,44
2022-10-17T06:21:35.712Z,43
2022-10-17T06:21:58.581Z,44
2022-10-17T06:22:20.949Z,40
2022-10-17T06:22:55.558Z,32
2022-10-17T06:23:29.165Z,33
2022-10-17T06:23:59.754Z,31
2022-10-17T06:24:31.776Z,35
2022-10-17T06:25:03.647Z,33
2022-10-17T06:25:32.871Z,34
2022-10-17T06:26:04.560Z,35
2022-10-17T06:26:39.791Z,37
2022-10-17T06:27:02.482Z,37
2022-10-17T06:27:24.756Z,37
2022-10-17T06:27:59.805Z,37
2022-10-17T06:28:31.980Z,37
2022-10-17T06:29:04.127Z,40
2022-10-17T06:29:35.781Z,45
2022-10-17T06:29:58.638Z,44
2022-10-17T06:30:21.016Z,40
2022-10-17T06:30:55.769Z,35
2022-10-17T06:31:27.580Z,56
2022-10-17T06:31:59.816Z,60
2022-10-17T06:32:32.070Z,47
2022-10-17T06:33:03.609Z,51
2022-10-17T06:33:32.932Z,42
2022-10-17T06:34:04.591Z,44
2022-10-17T06:34:41.321Z,33
2022-10-17T06:35:02.874Z,33
2022-10-17T06:35:25.058Z,34
2022-10-17T06:35:59.719Z,39
2022-10-17T06:36:31.692Z,39
2022-10-17T06:37:03.552Z,40
2022-10-17T06:37:41.357Z,39
2022-10-17T06:37:58.702Z,39
2022-10-17T06:38:21.176Z,43
2022-10-17T06:38:55.637Z,39
2022-10-17T06:39:27.626Z,36
2022-10-17T06:39:59.683Z,34
2022-10-17T06:40:31.717Z,37
2022-10-17T06:41:04.267Z,43
2022-10-17T06:41:32.980Z,44
2022-10-17T06:42:04.603Z,52
2022-10-17T06:42:46.323Z,47
2022-10-17T06:43:05.383Z,53
2022-10-17T06:43:46.413Z,43
2022-10-17T06:44:11.405Z,49
2022-10-17T06:44:49.339Z,55
2022-10-17T06:45:10.649Z,43
2022-10-17T06:45:32.860Z,45
2022-10-17T06:46:04.683Z,47
2022-10-17T06:46:39.624Z,41
2022-10-17T06:47:04.811Z,42
2022-10-17T06:47:25.513Z,39
2022-10-17T06:47:59.574Z,28
2022-10-17T06:48:31.489Z,34
2022-10-17T06:49:03.485Z,56
2022-10-17T06:49:32.896Z,29
2022-10-17T06:50:04.578Z,32
2022-10-17T06:50:39.600Z,49
2022-10-17T06:51:02.287Z,57
2022-10-17T06:51:24.627Z,64
2022-10-17T06:52:00.007Z,75
2022-10-17T06:52:31.684Z,50
2022-10-17T06:53:03.689Z,66
2022-10-17T06:53:32.956Z,62
2022-10-17T06:54:04.564Z,63
2022-10-17T06:54:39.517Z,55
2022-10-17T06:55:24.563Z,47
2022-10-17T06:55:59.681Z,40
2022-10-17T06:56:31.844Z,49
2022-10-17T06:57:03.686Z,28
2022-10-17T06:57:35.594Z,38
2022-10-17T06:57:58.346Z,56
2022-10-17T06:58:20.783Z,46
2022-10-17T06:58:55.585Z,17
2022-10-17T06:59:27.511Z,59
2022-10-17T06:59:59.676Z,49
2022-10-17T07:00:31.589Z,31
2022-10-17T07:01:03.653Z,58
2022-10-17T07:01:33.288Z,61
2022-10-17T07:02:04.682Z,31
2022-10-17T07:02:39.612Z,55
2022-10-17T07:03:02.240Z,42
2022-10-17T07:03:24.516Z,57
2022-10-17T07:03:59.718Z,51
2022-10-17T07:04:31.563Z,75
2022-10-17T07:05:03.628Z,47
2022-10-17T07:05:35.548Z,69
2022-10-17T07:05:58.518Z,49
2022-10-17T07:06:20.892Z,74
2022-10-17T07:06:55.741Z,69
2022-10-17T07:07:28.381Z,74
2022-10-17T07:07:59.554Z,73
2022-10-17T07:08:31.751Z,72
2022-10-17T07:09:03.620Z,54
2022-10-17T07:09:35.668Z,58
2022-10-17T07:09:58.526Z,70
2022-10-17T07:10:20.801Z,70
2022-10-17T07:10:55.849Z,72
2022-10-17T07:11:27.618Z,83
2022-10-17T07:11:59.585Z,69